sensor_id;sensor_type;location;lat;lon;timestamp;pressure;altitude;pressure_sealevel;temperature;humidity
17072;BME280;7731;50.720;6.912;2022-07-22T00:01:07;100607.63;;;17.30;nan
17072;BME280;7731;50.720;6.912;2022-07-22T00:03:40;100606.53;;;17.09;nan
17072;BME280;7731;50.720;6.912;2022-07-22T00:06:10;100609.94;;;17.22;nan
17072;BME280;7731;50.720;6.912;2022-07-22T00:08:41;100604.16;;;17.06;nan
17072;BME280;7731;50.720;6.912;2022-07-22T00:11:11;100603.53;;;17.02;nan
17072;BME280;7731;50.720;6.912;2022-07-22T00:13:41;100601.56;;;17.06;nan
17072;BME280;7731;50.720;6.912;2022-07-22T00:16:12;100599.56;;;17.22;nan
17072;BME280;7731;50.720;6.912;2022-07-22T00:18:45;100584.88;;;17.58;nan
17072;BME280;7731;50.720;6.912;2022-07-22T00:21:16;100597.66;;;17.24;nan
17072;BME280;7731;50.720;6.912;2022-07-22T00:23:46;100588.34;;;17.22;nan
17072;BME280;7731;50.720;6.912;2022-07-22T00:26:16;100596.88;;;17.11;nan
17072;BME280;7731;50.720;6.912;2022-07-22T00:28:47;100595.00;;;17.50;nan
17072;BME280;7731;50.720;6.912;2022-07-22T00:31:17;100590.31;;;17.31;nan
17072;BME280;7731;50.720;6.912;2022-07-22T00:33:50;100591.53;;;17.62;nan
17072;BME280;7731;50.720;6.912;2022-07-22T00:36:20;100585.44;;;17.26;nan
17072;BME280;7731;50.720;6.912;2022-07-22T00:38:50;100587.72;;;17.18;nan
17072;BME280;7731;50.720;6.912;2022-07-22T00:41:22;100586.72;;;17.08;nan
17072;BME280;7731;50.720;6.912;2022-07-22T00:43:58;100590.03;;;17.10;nan
17072;BME280;7731;50.720;6.912;2022-07-22T00:46:31;100585.66;;;17.23;nan
17072;BME280;7731;50.720;6.912;2022-07-22T00:49:07;100589.22;;;17.34;nan
17072;BME280;7731;50.720;6.912;2022-07-22T00:51:38;100579.16;;;17.05;nan
17072;BME280;7731;50.720;6.912;2022-07-22T00:54:09;100582.88;;;17.01;nan
17072;BME280;7731;50.720;6.912;2022-07-22T00:56:40;100581.84;;;16.90;nan
17072;BME280;7731;50.720;6.912;2022-07-22T00:59:12;100576.97;;;16.99;nan
17072;BME280;7731;50.720;6.912;2022-07-22T01:01:42;100564.31;;;16.94;nan
17072;BME280;7731;50.720;6.912;2022-07-22T01:04:17;100574.88;;;17.04;nan
17072;BME280;7731;50.720;6.912;2022-07-22T01:06:47;100572.09;;;16.68;nan
17072;BME280;7731;50.720;6.912;2022-07-22T01:09:18;100568.88;;;16.90;nan
17072;BME280;7731;50.720;6.912;2022-07-22T01:11:48;100575.38;;;17.09;nan
17072;BME280;7731;50.720;6.912;2022-07-22T01:14:19;100566.47;;;16.74;nan
17072;BME280;7731;50.720;6.912;2022-07-22T01:16:49;100561.19;;;17.02;nan
17072;BME280;7731;50.720;6.912;2022-07-22T01:19:22;100562.19;;;17.12;nan
17072;BME280;7731;50.720;6.912;2022-07-22T01:21:55;100565.97;;;16.82;nan
17072;BME280;7731;50.720;6.912;2022-07-22T01:24:25;100567.59;;;17.09;nan
17072;BME280;7731;50.720;6.912;2022-07-22T01:26:55;100561.31;;;16.87;nan
17072;BME280;7731;50.720;6.912;2022-07-22T01:29:26;100569.84;;;17.26;nan
17072;BME280;7731;50.720;6.912;2022-07-22T01:31:56;100564.94;;;17.35;nan
17072;BME280;7731;50.720;6.912;2022-07-22T01:34:26;100560.34;;;17.14;nan
17072;BME280;7731;50.720;6.912;2022-07-22T01:36:59;100566.72;;;17.34;nan
17072;BME280;7731;50.720;6.912;2022-07-22T01:39:30;100567.16;;;17.28;nan
17072;BME280;7731;50.720;6.912;2022-07-22T01:42:00;100555.28;;;16.87;nan
17072;BME280;7731;50.720;6.912;2022-07-22T01:44:31;100562.16;;;16.88;nan
17072;BME280;7731;50.720;6.912;2022-07-22T01:47:01;100565.75;;;16.72;nan
17072;BME280;7731;50.720;6.912;2022-07-22T01:49:32;100557.31;;;16.82;nan
17072;BME280;7731;50.720;6.912;2022-07-22T01:52:05;100558.81;;;16.73;nan
17072;BME280;7731;50.720;6.912;2022-07-22T01:54:36;100561.41;;;16.73;nan
17072;BME280;7731;50.720;6.912;2022-07-22T01:57:06;100561.69;;;16.81;nan
17072;BME280;7731;50.720;6.912;2022-07-22T01:59:36;100564.50;;;17.04;nan
17072;BME280;7731;50.720;6.912;2022-07-22T02:02:06;100561.41;;;16.73;nan
17072;BME280;7731;50.720;6.912;2022-07-22T02:04:37;100552.44;;;17.03;nan
17072;BME280;7731;50.720;6.912;2022-07-22T02:07:10;100557.06;;;16.86;nan
17072;BME280;7731;50.720;6.912;2022-07-22T02:09:40;100559.81;;;17.09;nan
17072;BME280;7731;50.720;6.912;2022-07-22T02:12:10;100551.72;;;16.75;nan
17072;BME280;7731;50.720;6.912;2022-07-22T02:14:41;100556.81;;;16.76;nan
17072;BME280;7731;50.720;6.912;2022-07-22T02:17:13;100562.94;;;16.63;nan
17072;BME280;7731;50.720;6.912;2022-07-22T02:19:43;100567.31;;;16.75;nan
17072;BME280;7731;50.720;6.912;2022-07-22T02:22:16;100566.78;;;16.70;nan
17072;BME280;7731;50.720;6.912;2022-07-22T02:24:46;100566.16;;;16.92;nan
17072;BME280;7731;50.720;6.912;2022-07-22T02:27:17;100561.91;;;16.78;nan
17072;BME280;7731;50.720;6.912;2022-07-22T02:29:47;100557.44;;;16.80;nan
17072;BME280;7731;50.720;6.912;2022-07-22T02:32:17;100560.56;;;16.85;nan
17072;BME280;7731;50.720;6.912;2022-07-22T02:34:49;100563.66;;;16.65;nan
17072;BME280;7731;50.720;6.912;2022-07-22T02:37:21;100563.66;;;16.65;nan
17072;BME280;7731;50.720;6.912;2022-07-22T02:39:52;100567.41;;;16.48;nan
17072;BME280;7731;50.720;6.912;2022-07-22T02:42:22;100562.94;;;16.63;nan
17072;BME280;7731;50.720;6.912;2022-07-22T02:44:52;100564.50;;;16.52;nan
17072;BME280;7731;50.720;6.912;2022-07-22T02:47:23;100561.16;;;16.24;nan
17072;BME280;7731;50.720;6.912;2022-07-22T02:49:53;100560.34;;;16.75;nan
17072;BME280;7731;50.720;6.912;2022-07-22T02:52:26;100561.19;;;16.50;nan
17072;BME280;7731;50.720;6.912;2022-07-22T02:54:56;100558.69;;;16.74;nan
17072;BME280;7731;50.720;6.912;2022-07-22T02:57:26;100557.06;;;16.60;nan
17072;BME280;7731;50.720;6.912;2022-07-22T02:59:57;100555.81;;;16.40;nan
17072;BME280;7731;50.720;6.912;2022-07-22T03:02:27;100557.56;;;16.66;nan
17072;BME280;7731;50.720;6.912;2022-07-22T03:04:57;100560.88;;;16.55;nan
17072;BME280;7731;50.720;6.912;2022-07-22T03:07:30;100554.31;;;16.75;nan
17072;BME280;7731;50.720;6.912;2022-07-22T03:10:02;100554.53;;;16.72;nan
17072;BME280;7731;50.720;6.912;2022-07-22T03:12:32;100552.28;;;16.93;nan
17072;BME280;7731;50.720;6.912;2022-07-22T03:15:04;100547.03;;;16.80;nan
17072;BME280;7731;50.720;6.912;2022-07-22T03:17:58;100549.34;;;16.72;nan
17072;BME280;7731;50.720;6.912;2022-07-22T03:20:29;100556.41;;;16.70;nan
17072;BME280;7731;50.720;6.912;2022-07-22T03:23:03;100558.50;;;16.52;nan
17072;BME280;7731;50.720;6.912;2022-07-22T03:25:33;100560.47;;;16.61;nan
17072;BME280;7731;50.720;6.912;2022-07-22T03:28:04;100558.28;;;16.68;nan
17072;BME280;7731;50.720;6.912;2022-07-22T03:30:34;100560.13;;;16.78;nan
17072;BME280;7731;50.720;6.912;2022-07-22T03:33:05;100557.97;;;16.59;nan
17072;BME280;7731;50.720;6.912;2022-07-22T03:35:35;100551.03;;;16.73;nan
17072;BME280;7731;50.720;6.912;2022-07-22T03:38:08;100546.84;;;16.83;nan
17072;BME280;7731;50.720;6.912;2022-07-22T03:40:38;100546.66;;;16.99;nan
17072;BME280;7731;50.720;6.912;2022-07-22T03:43:08;100552.97;;;16.82;nan
17072;BME280;7731;50.720;6.912;2022-07-22T03:45:39;100552.88;;;16.71;nan
17072;BME280;7731;50.720;6.912;2022-07-22T03:48:09;100552.59;;;16.50;nan
17072;BME280;7731;50.720;6.912;2022-07-22T03:50:39;100553.50;;;16.61;nan
17072;BME280;7731;50.720;6.912;2022-07-22T03:53:12;100546.84;;;16.83;nan
17072;BME280;7731;50.720;6.912;2022-07-22T03:55:43;100545.63;;;16.63;nan
17072;BME280;7731;50.720;6.912;2022-07-22T03:58:13;100549.13;;;16.75;nan
17072;BME280;7731;50.720;6.912;2022-07-22T04:00:43;100546.75;;;16.72;nan
17072;BME280;7731;50.720;6.912;2022-07-22T04:03:14;100545.84;;;16.47;nan
17072;BME280;7731;50.720;6.912;2022-07-22T04:05:44;100550.59;;;16.92;nan
17072;BME280;7731;50.720;6.912;2022-07-22T04:08:18;100542.22;;;16.88;nan
17072;BME280;7731;50.720;6.912;2022-07-22T04:10:48;100539.91;;;16.84;nan
17072;BME280;7731;50.720;6.912;2022-07-22T04:13:19;100541.06;;;16.67;nan
17072;BME280;7731;50.720;6.912;2022-07-22T04:15:49;100551.88;;;16.60;nan
17072;BME280;7731;50.720;6.912;2022-07-22T04:18:19;100544.56;;;16.78;nan
17072;BME280;7731;50.720;6.912;2022-07-22T04:20:49;100546.88;;;16.57;nan
17072;BME280;7731;50.720;6.912;2022-07-22T04:23:22;100544.38;;;16.69;nan
17072;BME280;7731;50.720;6.912;2022-07-22T04:25:53;100539.81;;;16.59;nan
17072;BME280;7731;50.720;6.912;2022-07-22T04:28:23;100546.03;;;16.70;nan
17072;BME280;7731;50.720;6.912;2022-07-22T04:30:53;100545.19;;;16.69;nan
17072;BME280;7731;50.720;6.912;2022-07-22T04:33:23;100550.19;;;16.59;nan
17072;BME280;7731;50.720;6.912;2022-07-22T04:35:54;100544.78;;;16.63;nan
17072;BME280;7731;50.720;6.912;2022-07-22T04:38:27;100548.72;;;16.81;nan
17072;BME280;7731;50.720;6.912;2022-07-22T04:40:57;100548.31;;;16.87;nan
17072;BME280;7731;50.720;6.912;2022-07-22T04:43:28;100554.56;;;16.59;nan
17072;BME280;7731;50.720;6.912;2022-07-22T04:45:58;100554.13;;;16.52;nan
17072;BME280;7731;50.720;6.912;2022-07-22T04:48:29;100550.94;;;17.24;nan
17072;BME280;7731;50.720;6.912;2022-07-22T04:51:00;100550.06;;;16.74;nan
17072;BME280;7731;50.720;6.912;2022-07-22T04:53:33;100555.38;;;16.59;nan
17072;BME280;7731;50.720;6.912;2022-07-22T04:56:14;100554.31;;;16.75;nan
17072;BME280;7731;50.720;6.912;2022-07-22T04:58:45;100563.56;;;16.79;nan
17072;BME280;7731;50.720;6.912;2022-07-22T05:01:15;100563.06;;;16.87;nan
17072;BME280;7731;50.720;6.912;2022-07-22T05:03:45;100558.69;;;16.87;nan
17072;BME280;7731;50.720;6.912;2022-07-22T05:06:16;100561.38;;;16.86;nan
17072;BME280;7731;50.720;6.912;2022-07-22T05:08:48;100554.31;;;16.75;nan
17072;BME280;7731;50.720;6.912;2022-07-22T05:11:19;100557.53;;;16.78;nan
17072;BME280;7731;50.720;6.912;2022-07-22T05:13:50;100547.06;;;16.93;nan
17072;BME280;7731;50.720;6.912;2022-07-22T05:16:20;100551.03;;;16.99;nan
17072;BME280;7731;50.720;6.912;2022-07-22T05:18:50;100556.00;;;17.02;nan
17072;BME280;7731;50.720;6.912;2022-07-22T05:21:21;100563.13;;;17.11;nan
17072;BME280;7731;50.720;6.912;2022-07-22T05:23:54;100559.34;;;17.52;nan
17072;BME280;7731;50.720;6.912;2022-07-22T05:26:24;100553.53;;;17.24;nan
17072;BME280;7731;50.720;6.912;2022-07-22T05:28:56;100556.47;;;17.44;nan
17072;BME280;7731;50.720;6.912;2022-07-22T05:31:27;100550.88;;;17.13;nan
17072;BME280;7731;50.720;6.912;2022-07-22T05:33:57;100547.19;;;16.91;nan
17072;BME280;7731;50.720;6.912;2022-07-22T05:36:27;100540.31;;;17.27;nan
17072;BME280;7731;50.720;6.912;2022-07-22T05:39:00;100544.09;;;17.23;nan
17072;BME280;7731;50.720;6.912;2022-07-22T05:41:30;100550.50;;;17.30;nan
17072;BME280;7731;50.720;6.912;2022-07-22T05:44:01;100551.03;;;16.99;nan
17072;BME280;7731;50.720;6.912;2022-07-22T05:46:31;100545.53;;;17.27;nan
17072;BME280;7731;50.720;6.912;2022-07-22T05:49:02;100545.19;;;17.08;nan
17072;BME280;7731;50.720;6.912;2022-07-22T05:51:32;100537.47;;;17.19;nan
17072;BME280;7731;50.720;6.912;2022-07-22T05:54:06;100541.63;;;17.09;nan
17072;BME280;7731;50.720;6.912;2022-07-22T05:56:36;100547.41;;;17.25;nan
17072;BME280;7731;50.720;6.912;2022-07-22T05:59:06;100542.47;;;17.09;nan
17072;BME280;7731;50.720;6.912;2022-07-22T06:01:37;100542.38;;;16.98;nan
17072;BME280;7731;50.720;6.912;2022-07-22T06:04:07;100547.06;;;16.93;nan
17072;BME280;7731;50.720;6.912;2022-07-22T06:06:39;100537.59;;;17.42;nan
17072;BME280;7731;50.720;6.912;2022-07-22T06:09:11;100537.41;;;17.80;nan
17072;BME280;7731;50.720;6.912;2022-07-22T06:11:42;100540.00;;;17.56;nan
17072;BME280;7731;50.720;6.912;2022-07-22T06:14:12;100535.63;;;17.08;nan
17072;BME280;7731;50.720;6.912;2022-07-22T06:16:49;100526.53;;;17.51;nan
17072;BME280;7731;50.720;6.912;2022-07-22T06:19:19;100534.22;;;17.53;nan
17072;BME280;7731;50.720;6.912;2022-07-22T06:21:50;100536.94;;;17.51;nan
17072;BME280;7731;50.720;6.912;2022-07-22T06:24:23;100539.78;;;17.59;nan
17072;BME280;7731;50.720;6.912;2022-07-22T06:26:53;100533.59;;;17.73;nan
17072;BME280;7731;50.720;6.912;2022-07-22T06:29:23;100531.78;;;17.62;nan
17072;BME280;7731;50.720;6.912;2022-07-22T06:31:54;100535.03;;;17.53;nan
17072;BME280;7731;50.720;6.912;2022-07-22T06:34:25;100531.13;;;17.83;nan
17072;BME280;7731;50.720;6.912;2022-07-22T06:36:56;100524.84;;;17.98;nan
17072;BME280;7731;50.720;6.912;2022-07-22T06:39:29;100530.78;;;18.12;nan
17072;BME280;7731;50.720;6.912;2022-07-22T06:42:00;100524.63;;;18.13;nan
17072;BME280;7731;50.720;6.912;2022-07-22T06:44:30;100529.88;;;18.92;nan
17072;BME280;7731;50.720;6.912;2022-07-22T06:47:00;100538.09;;;17.95;nan
17072;BME280;7731;50.720;6.912;2022-07-22T06:49:31;100528.25;;;18.57;nan
17072;BME280;7731;50.720;6.912;2022-07-22T06:52:01;100533.19;;;18.49;nan
17072;BME280;7731;50.720;6.912;2022-07-22T06:54:34;100524.44;;;18.84;nan
17072;BME280;7731;50.720;6.912;2022-07-22T06:57:04;100530.13;;;18.44;nan
17072;BME280;7731;50.720;6.912;2022-07-22T06:59:34;100537.00;;;18.79;nan
17072;BME280;7731;50.720;6.912;2022-07-22T07:02:04;100533.69;;;18.54;nan
17072;BME280;7731;50.720;6.912;2022-07-22T07:04:37;100530.69;;;18.25;nan
17072;BME280;7731;50.720;6.912;2022-07-22T07:07:08;100531.44;;;18.61;nan
17072;BME280;7731;50.720;6.912;2022-07-22T07:09:48;100533.78;;;18.75;nan
17072;BME280;7731;50.720;6.912;2022-07-22T07:12:18;100528.75;;;19.40;nan
17072;BME280;7731;50.720;6.912;2022-07-22T07:14:48;100522.50;;;19.31;nan
17072;BME280;7731;50.720;6.912;2022-07-22T07:17:39;100523.75;;;19.04;nan
17072;BME280;7731;50.720;6.912;2022-07-22T07:20:11;100521.84;;;18.84;nan
17072;BME280;7731;50.720;6.912;2022-07-22T07:22:41;100523.50;;;19.07;nan
17072;BME280;7731;50.720;6.912;2022-07-22T07:25:15;100525.78;;;19.33;nan
17072;BME280;7731;50.720;6.912;2022-07-22T07:27:49;100516.59;;;19.29;nan
17072;BME280;7731;50.720;6.912;2022-07-22T07:30:21;100513.19;;;19.82;nan
17072;BME280;7731;50.720;6.912;2022-07-22T07:32:52;100509.94;;;19.90;nan
17072;BME280;7731;50.720;6.912;2022-07-22T07:35:23;100520.69;;;19.64;nan
17072;BME280;7731;50.720;6.912;2022-07-22T07:37:58;100514.66;;;19.63;nan
17072;BME280;7731;50.720;6.912;2022-07-22T07:40:31;100515.69;;;19.07;nan
17072;BME280;7731;50.720;6.912;2022-07-22T07:43:01;100522.31;;;18.44;nan
17072;BME280;7731;50.720;6.912;2022-07-22T07:45:32;100516.63;;;18.61;nan
17072;BME280;7731;50.720;6.912;2022-07-22T07:48:03;100521.25;;;18.80;nan
17072;BME280;7731;50.720;6.912;2022-07-22T07:50:33;100515.81;;;18.61;nan
17072;BME280;7731;50.720;6.912;2022-07-22T07:53:04;100511.66;;;20.22;nan
17072;BME280;7731;50.720;6.912;2022-07-22T07:55:37;100503.81;;;20.22;nan
17072;BME280;7731;50.720;6.912;2022-07-22T07:58:09;100526.50;;;19.35;nan
17072;BME280;7731;50.720;6.912;2022-07-22T08:00:39;100517.94;;;20.40;nan
17072;BME280;7731;50.720;6.912;2022-07-22T08:03:10;100516.75;;;20.85;nan
17072;BME280;7731;50.720;6.912;2022-07-22T08:05:41;100511.28;;;19.52;nan
17072;BME280;7731;50.720;6.912;2022-07-22T08:08:12;100510.84;;;19.79;nan
17072;BME280;7731;50.720;6.912;2022-07-22T08:10:45;100509.56;;;20.15;nan
17072;BME280;7731;50.720;6.912;2022-07-22T08:13:26;100503.88;;;21.03;nan
17072;BME280;7731;50.720;6.912;2022-07-22T08:15:56;100512.16;;;21.28;nan
17072;BME280;7731;50.720;6.912;2022-07-22T08:18:28;100499.63;;;20.09;nan
17072;BME280;7731;50.720;6.912;2022-07-22T08:20:58;100507.88;;;20.66;nan
17072;BME280;7731;50.720;6.912;2022-07-22T08:23:31;100494.00;;;21.65;nan
17072;BME280;7731;50.720;6.912;2022-07-22T08:26:04;100500.09;;;23.52;nan
17072;BME280;7731;50.720;6.912;2022-07-22T08:28:35;100503.63;;;23.43;nan
17072;BME280;7731;50.720;6.912;2022-07-22T08:31:05;100501.19;;;22.68;nan
17072;BME280;7731;50.720;6.912;2022-07-22T08:33:35;100504.00;;;23.12;nan
17072;BME280;7731;50.720;6.912;2022-07-22T08:36:06;100503.00;;;20.21;nan
17072;BME280;7731;50.720;6.912;2022-07-22T08:38:37;100502.25;;;21.31;nan
17072;BME280;7731;50.720;6.912;2022-07-22T08:41:13;100506.97;;;20.46;nan
17072;BME280;7731;50.720;6.912;2022-07-22T08:43:45;100504.47;;;19.93;nan
17072;BME280;7731;50.720;6.912;2022-07-22T08:46:16;100503.84;;;20.01;nan
17072;BME280;7731;50.720;6.912;2022-07-22T08:48:47;100507.84;;;20.26;nan
17072;BME280;7731;50.720;6.912;2022-07-22T08:51:21;100503.13;;;20.50;nan
17072;BME280;7731;50.720;6.912;2022-07-22T08:53:51;100500.34;;;19.58;nan
17072;BME280;7731;50.720;6.912;2022-07-22T08:56:24;100497.66;;;20.84;nan
17072;BME280;7731;50.720;6.912;2022-07-22T08:58:55;100504.09;;;20.80;nan
17072;BME280;7731;50.720;6.912;2022-07-22T09:01:25;100506.06;;;21.17;nan
17072;BME280;7731;50.720;6.912;2022-07-22T09:03:57;100497.97;;;21.79;nan
17072;BME280;7731;50.720;6.912;2022-07-22T09:06:29;100506.03;;;20.98;nan
17072;BME280;7731;50.720;6.912;2022-07-22T09:09:04;100494.63;;;22.16;nan
17072;BME280;7731;50.720;6.912;2022-07-22T09:11:42;100497.19;;;22.91;nan
17072;BME280;7731;50.720;6.912;2022-07-22T09:14:13;100483.34;;;25.83;nan
17072;BME280;7731;50.720;6.912;2022-07-22T09:16:45;100486.88;;;24.75;nan
17072;BME280;7731;50.720;6.912;2022-07-22T09:19:30;100467.31;;;27.96;nan
17072;BME280;7731;50.720;6.912;2022-07-22T09:22:00;100472.28;;;26.60;nan
17072;BME280;7731;50.720;6.912;2022-07-22T09:24:33;100467.47;;;28.91;nan
17072;BME280;7731;50.720;6.912;2022-07-22T09:27:06;100468.25;;;29.56;nan
17072;BME280;7731;50.720;6.912;2022-07-22T09:29:37;100479.91;;;29.90;nan
17072;BME280;7731;50.720;6.912;2022-07-22T09:32:08;100458.66;;;30.87;nan
17072;BME280;7731;50.720;6.912;2022-07-22T09:34:39;100473.50;;;27.27;nan
17072;BME280;7731;50.720;6.912;2022-07-22T09:37:11;100470.72;;;27.67;nan
17072;BME280;7731;50.720;6.912;2022-07-22T09:39:41;100477.38;;;27.16;nan
17072;BME280;7731;50.720;6.912;2022-07-22T09:42:15;100475.97;;;26.82;nan
17072;BME280;7731;50.720;6.912;2022-07-22T09:44:47;100467.25;;;28.71;nan
17072;BME280;7731;50.720;6.912;2022-07-22T09:47:27;100475.78;;;26.52;nan
17072;BME280;7731;50.720;6.912;2022-07-22T09:50:19;100473.81;;;25.90;nan
17072;BME280;7731;50.720;6.912;2022-07-22T09:52:51;100468.50;;;26.54;nan
17072;BME280;7731;50.720;6.912;2022-07-22T09:55:30;100474.72;;;27.48;nan
17072;BME280;7731;50.720;6.912;2022-07-22T09:58:03;100479.16;;;24.65;nan
17072;BME280;7731;50.720;6.912;2022-07-22T10:00:36;100475.16;;;23.92;nan
17072;BME280;7731;50.720;6.912;2022-07-22T10:03:11;100479.25;;;23.68;nan
17072;BME280;7731;50.720;6.912;2022-07-22T10:05:42;100457.59;;;25.29;nan
17072;BME280;7731;50.720;6.912;2022-07-22T10:08:13;100460.25;;;27.12;nan
17072;BME280;7731;50.720;6.912;2022-07-22T10:10:44;100456.13;;;26.63;nan
17072;BME280;7731;50.720;6.912;2022-07-22T10:13:18;100460.50;;;25.01;nan
17072;BME280;7731;50.720;6.912;2022-07-22T10:15:49;100450.25;;;25.97;nan
17072;BME280;7731;50.720;6.912;2022-07-22T10:18:23;100450.97;;;25.74;nan
17072;BME280;7731;50.720;6.912;2022-07-22T10:21:05;100438.81;;;26.29;nan
17072;BME280;7731;50.720;6.912;2022-07-22T10:23:36;100437.13;;;26.45;nan
17072;BME280;7731;50.720;6.912;2022-07-22T10:26:52;100433.84;;;26.97;nan
17072;BME280;7731;50.720;6.912;2022-07-22T10:29:31;100433.84;;;26.74;nan
17072;BME280;7731;50.720;6.912;2022-07-22T10:32:24;100445.13;;;26.51;nan
17072;BME280;7731;50.720;6.912;2022-07-22T10:38:21;100444.78;;;27.55;nan
17072;BME280;7731;50.720;6.912;2022-07-22T10:40:54;100440.28;;;26.40;nan
17072;BME280;7731;50.720;6.912;2022-07-22T10:43:26;100440.09;;;27.95;nan
17072;BME280;7731;50.720;6.912;2022-07-22T10:46:01;100445.03;;;27.46;nan
17072;BME280;7731;50.720;6.912;2022-07-22T10:48:46;100424.63;;;30.22;nan
17072;BME280;7731;50.720;6.912;2022-07-22T10:51:19;100431.84;;;29.15;nan
17072;BME280;7731;50.720;6.912;2022-07-22T10:53:56;100436.41;;;28.78;nan
17072;BME280;7731;50.720;6.912;2022-07-22T10:56:29;100416.59;;;30.08;nan
17072;BME280;7731;50.720;6.912;2022-07-22T10:59:25;100432.19;;;29.27;nan
17072;BME280;7731;50.720;6.912;2022-07-22T11:01:58;100431.38;;;31.20;nan
17072;BME280;7731;50.720;6.912;2022-07-22T11:04:28;100434.66;;;29.56;nan
17072;BME280;7731;50.720;6.912;2022-07-22T11:06:59;100436.03;;;29.52;nan
17072;BME280;7731;50.720;6.912;2022-07-22T11:09:34;100432.13;;;29.77;nan
17072;BME280;7731;50.720;6.912;2022-07-22T11:12:13;100415.19;;;29.43;nan
17072;BME280;7731;50.720;6.912;2022-07-22T11:14:43;100440.56;;;27.46;nan
17072;BME280;7731;50.720;6.912;2022-07-22T11:17:16;100436.59;;;26.81;nan
17072;BME280;7731;50.720;6.912;2022-07-22T11:19:51;100428.94;;;28.15;nan
17072;BME280;7731;50.720;6.912;2022-07-22T11:22:22;100436.59;;;27.04;nan
17072;BME280;7731;50.720;6.912;2022-07-22T11:24:52;100423.31;;;27.58;nan
17072;BME280;7731;50.720;6.912;2022-07-22T11:27:22;100418.63;;;28.35;nan
17072;BME280;7731;50.720;6.912;2022-07-22T11:29:54;100424.19;;;26.89;nan
17072;BME280;7731;50.720;6.912;2022-07-22T11:32:28;100421.25;;;26.84;nan
17072;BME280;7731;50.720;6.912;2022-07-22T11:35:00;100422.13;;;27.00;nan
17072;BME280;7731;50.720;6.912;2022-07-22T11:37:30;100415.66;;;26.16;nan
17072;BME280;7731;50.720;6.912;2022-07-22T11:40:05;100415.78;;;26.23;nan
17072;BME280;7731;50.720;6.912;2022-07-22T11:42:36;100410.44;;;26.08;nan
17072;BME280;7731;50.720;6.912;2022-07-22T11:45:11;100408.75;;;26.78;nan
17072;BME280;7731;50.720;6.912;2022-07-22T11:47:51;100409.66;;;26.31;nan
17072;BME280;7731;50.720;6.912;2022-07-22T11:50:30;100418.59;;;25.24;nan
17072;BME280;7731;50.720;6.912;2022-07-22T11:53:02;100400.97;;;25.74;nan
17072;BME280;7731;50.720;6.912;2022-07-22T11:55:34;100399.34;;;25.65;nan
17072;BME280;7731;50.720;6.912;2022-07-22T11:58:05;100391.78;;;25.70;nan
17072;BME280;7731;50.720;6.912;2022-07-22T12:00:35;100400.53;;;26.50;nan
17072;BME280;7731;50.720;6.912;2022-07-22T12:03:09;100404.28;;;26.24;nan
17072;BME280;7731;50.720;6.912;2022-07-22T12:05:40;100397.28;;;26.08;nan
17072;BME280;7731;50.720;6.912;2022-07-22T12:08:10;100399.28;;;26.69;nan
17072;BME280;7731;50.720;6.912;2022-07-22T12:10:42;100400.50;;;26.18;nan
17072;BME280;7731;50.720;6.912;2022-07-22T12:13:13;100392.88;;;26.00;nan
17072;BME280;7731;50.720;6.912;2022-07-22T12:15:43;100398.16;;;25.84;nan
17072;BME280;7731;50.720;6.912;2022-07-22T12:18:21;100399.97;;;25.75;nan
17072;BME280;7731;50.720;6.912;2022-07-22T12:20:54;100391.59;;;25.72;nan
17072;BME280;7731;50.720;6.912;2022-07-22T12:23:26;100389.28;;;26.25;nan
17072;BME280;7731;50.720;6.912;2022-07-22T12:25:58;100394.63;;;26.08;nan
17072;BME280;7731;50.720;6.912;2022-07-22T12:28:29;100390.28;;;26.55;nan
17072;BME280;7731;50.720;6.912;2022-07-22T12:30:59;100394.75;;;27.01;nan
17072;BME280;7731;50.720;6.912;2022-07-22T12:33:33;100392.03;;;26.00;nan
17072;BME280;7731;50.720;6.912;2022-07-22T12:36:05;100386.06;;;26.06;nan
17072;BME280;7731;50.720;6.912;2022-07-22T12:38:36;100387.44;;;26.65;nan
17072;BME280;7731;50.720;6.912;2022-07-22T12:41:26;100387.81;;;26.53;nan
17072;BME280;7731;50.720;6.912;2022-07-22T12:43:58;100382.78;;;26.44;nan
17072;BME280;7731;50.720;6.912;2022-07-22T12:46:33;100375.97;;;26.81;nan
17072;BME280;7731;50.720;6.912;2022-07-22T12:49:22;100368.50;;;25.18;nan
17072;BME280;7731;50.720;6.912;2022-07-22T12:52:13;100361.16;;;26.25;nan
17072;BME280;7731;50.720;6.912;2022-07-22T12:54:45;100358.88;;;25.66;nan
17072;BME280;7731;50.720;6.912;2022-07-22T12:57:18;100349.09;;;25.43;nan
17072;BME280;7731;50.720;6.912;2022-07-22T12:59:52;100348.41;;;26.06;nan
17072;BME280;7731;50.720;6.912;2022-07-22T13:02:24;100342.41;;;26.75;nan
17072;BME280;7731;50.720;6.912;2022-07-22T13:04:58;100353.78;;;26.44;nan
17072;BME280;7731;50.720;6.912;2022-07-22T13:07:32;100351.50;;;26.41;nan
17072;BME280;7731;50.720;6.912;2022-07-22T13:10:07;100341.94;;;26.71;nan
17072;BME280;7731;50.720;6.912;2022-07-22T13:12:41;100334.25;;;25.51;nan
17072;BME280;7731;50.720;6.912;2022-07-22T13:15:13;100332.72;;;26.12;nan
17072;BME280;7731;50.720;6.912;2022-07-22T13:17:46;100339.59;;;26.76;nan
17072;BME280;7731;50.720;6.912;2022-07-22T13:20:20;100327.34;;;26.37;nan
17072;BME280;7731;50.720;6.912;2022-07-22T13:22:51;100323.78;;;26.76;nan
17072;BME280;7731;50.720;6.912;2022-07-22T13:25:23;100330.84;;;25.98;nan
17072;BME280;7731;50.720;6.912;2022-07-22T13:27:56;100326.53;;;25.49;nan
17072;BME280;7731;50.720;6.912;2022-07-22T13:30:31;100330.47;;;26.01;nan
17072;BME280;7731;50.720;6.912;2022-07-22T13:33:02;100333.75;;;25.55;nan
17072;BME280;7731;50.720;6.912;2022-07-22T13:35:36;100332.81;;;25.23;nan
17072;BME280;7731;50.720;6.912;2022-07-22T13:38:06;100332.81;;;25.48;nan
17072;BME280;7731;50.720;6.912;2022-07-22T13:40:42;100322.78;;;25.27;nan
17072;BME280;7731;50.720;6.912;2022-07-22T13:43:19;100332.78;;;26.04;nan
17072;BME280;7731;50.720;6.912;2022-07-22T13:45:51;100328.44;;;26.43;nan
17072;BME280;7731;50.720;6.912;2022-07-22T13:48:22;100330.53;;;26.47;nan
17072;BME280;7731;50.720;6.912;2022-07-22T13:50:56;100326.47;;;26.45;nan
17072;BME280;7731;50.720;6.912;2022-07-22T13:53:27;100316.97;;;26.04;nan